sensor_id;sensor_type;location;lat;lon;timestamp;P1;durP1;ratioP1;P2;durP2;ratioP2
11539;SDS011;5826;54.756;9.192;2024-01-30T00:01:17;30.40;;;15.77;;
11539;SDS011;5826;54.756;9.192;2024-01-30T00:03:42;36.00;;;17.70;;
11539;SDS011;5826;54.756;9.192;2024-01-30T00:06:08;28.90;;;15.30;;
11539;SDS011;5826;54.756;9.192;2024-01-30T00:08:34;41.37;;;17.93;;
11539;SDS011;5826;54.756;9.192;2024-01-30T00:10:59;34.17;;;17.33;;
11539;SDS011;5826;54.756;9.192;2024-01-30T00:13:25;29.67;;;15.47;;
11539;SDS011;5826;54.756;9.192;2024-01-30T00:15:51;28.20;;;14.90;;
11539;SDS011;5826;54.756;9.192;2024-01-30T00:18:17;32.73;;;16.77;;
11539;SDS011;5826;54.756;9.192;2024-01-30T00:20:43;37.73;;;18.20;;
11539;SDS011;5826;54.756;9.192;2024-01-30T00:23:09;27.70;;;14.15;;
11539;SDS011;5826;54.756;9.192;2024-01-30T00:25:34;28.07;;;14.73;;
11539;SDS011;5826;54.756;9.192;2024-01-30T00:28:00;24.80;;;14.20;;
11539;SDS011;5826;54.756;9.192;2024-01-30T00:30:25;26.17;;;14.63;;
11539;SDS011;5826;54.756;9.192;2024-01-30T00:32:51;28.57;;;13.90;;
11539;SDS011;5826;54.756;9.192;2024-01-30T00:35:16;26.07;;;14.83;;
11539;SDS011;5826;54.756;9.192;2024-01-30T00:37:42;25.13;;;15.00;;
11539;SDS011;5826;54.756;9.192;2024-01-30T00:40:08;29.40;;;14.87;;
11539;SDS011;5826;54.756;9.192;2024-01-30T00:42:35;18.83;;;12.20;;
11539;SDS011;5826;54.756;9.192;2024-01-30T00:45:00;30.42;;;16.25;;
11539;SDS011;5826;54.756;9.192;2024-01-30T00:47:26;30.50;;;15.63;;
11539;SDS011;5826;54.756;9.192;2024-01-30T00:49:52;26.77;;;15.73;;
11539;SDS011;5826;54.756;9.192;2024-01-30T00:52:17;22.58;;;13.82;;
11539;SDS011;5826;54.756;9.192;2024-01-30T00:54:43;20.27;;;13.00;;
11539;SDS011;5826;54.756;9.192;2024-01-30T00:57:08;21.90;;;12.70;;
11539;SDS011;5826;54.756;9.192;2024-01-30T00:59:34;29.43;;;17.07;;
11539;SDS011;5826;54.756;9.192;2024-01-30T01:01:59;26.17;;;14.80;;
11539;SDS011;5826;54.756;9.192;2024-01-30T01:04:25;28.07;;;16.97;;
11539;SDS011;5826;54.756;9.192;2024-01-30T01:06:51;32.63;;;17.93;;
11539;SDS011;5826;54.756;9.192;2024-01-30T01:09:17;20.87;;;13.53;;
11539;SDS011;5826;54.756;9.192;2024-01-30T01:11:42;22.83;;;13.67;;
11539;SDS011;5826;54.756;9.192;2024-01-30T01:14:08;23.47;;;13.87;;
11539;SDS011;5826;54.756;9.192;2024-01-30T01:16:33;26.57;;;16.20;;
11539;SDS011;5826;54.756;9.192;2024-01-30T01:18:59;24.40;;;14.68;;
11539;SDS011;5826;54.756;9.192;2024-01-30T01:21:25;22.53;;;15.23;;
11539;SDS011;5826;54.756;9.192;2024-01-30T01:23:50;25.23;;;16.13;;
11539;SDS011;5826;54.756;9.192;2024-01-30T01:26:16;23.33;;;14.40;;
11539;SDS011;5826;54.756;9.192;2024-01-30T01:28:42;18.07;;;13.30;;
11539;SDS011;5826;54.756;9.192;2024-01-30T01:31:07;24.90;;;14.83;;
11539;SDS011;5826;54.756;9.192;2024-01-30T01:33:33;26.48;;;16.48;;
11539;SDS011;5826;54.756;9.192;2024-01-30T01:35:59;21.90;;;14.23;;
11539;SDS011;5826;54.756;9.192;2024-01-30T01:38:27;21.20;;;14.15;;
11539;SDS011;5826;54.756;9.192;2024-01-30T01:40:53;17.13;;;12.17;;
11539;SDS011;5826;54.756;9.192;2024-01-30T01:43:18;17.55;;;12.27;;
11539;SDS011;5826;54.756;9.192;2024-01-30T01:45:44;22.50;;;15.13;;
11539;SDS011;5826;54.756;9.192;2024-01-30T01:48:10;19.73;;;13.90;;
11539;SDS011;5826;54.756;9.192;2024-01-30T01:50:37;17.30;;;12.23;;
11539;SDS011;5826;54.756;9.192;2024-01-30T01:53:03;18.27;;;13.10;;
11539;SDS011;5826;54.756;9.192;2024-01-30T01:55:30;17.37;;;11.90;;
11539;SDS011;5826;54.756;9.192;2024-01-30T01:57:57;18.40;;;12.45;;
11539;SDS011;5826;54.756;9.192;2024-01-30T02:00:23;20.03;;;13.67;;
11539;SDS011;5826;54.756;9.192;2024-01-30T02:02:49;18.17;;;12.25;;
11539;SDS011;5826;54.756;9.192;2024-01-30T02:05:15;17.35;;;12.00;;
11539;SDS011;5826;54.756;9.192;2024-01-30T02:07:41;16.33;;;11.83;;
11539;SDS011;5826;54.756;9.192;2024-01-30T02:10:08;17.67;;;12.47;;
11539;SDS011;5826;54.756;9.192;2024-01-30T02:12:34;20.13;;;13.97;;
11539;SDS011;5826;54.756;9.192;2024-01-30T02:15:00;19.93;;;14.50;;
11539;SDS011;5826;54.756;9.192;2024-01-30T02:17:26;18.97;;;13.33;;
11539;SDS011;5826;54.756;9.192;2024-01-30T02:19:51;17.53;;;12.87;;
11539;SDS011;5826;54.756;9.192;2024-01-30T02:22:17;18.07;;;12.93;;
11539;SDS011;5826;54.756;9.192;2024-01-30T02:24:44;20.35;;;13.80;;
11539;SDS011;5826;54.756;9.192;2024-01-30T02:27:10;20.27;;;14.03;;
11539;SDS011;5826;54.756;9.192;2024-01-30T02:29:35;18.17;;;13.03;;
11539;SDS011;5826;54.756;9.192;2024-01-30T02:32:01;20.77;;;14.20;;
11539;SDS011;5826;54.756;9.192;2024-01-30T02:34:26;18.87;;;14.07;;
11539;SDS011;5826;54.756;9.192;2024-01-30T02:36:52;21.17;;;14.90;;
11539;SDS011;5826;54.756;9.192;2024-01-30T02:39:18;17.17;;;11.70;;
11539;SDS011;5826;54.756;9.192;2024-01-30T02:41:43;17.20;;;12.70;;
11539;SDS011;5826;54.756;9.192;2024-01-30T02:44:08;16.90;;;12.73;;
11539;SDS011;5826;54.756;9.192;2024-01-30T02:46:34;15.90;;;11.77;;
11539;SDS011;5826;54.756;9.192;2024-01-30T02:48:59;20.55;;;13.35;;
11539;SDS011;5826;54.756;9.192;2024-01-30T02:51:25;15.73;;;11.88;;
11539;SDS011;5826;54.756;9.192;2024-01-30T02:53:50;16.83;;;12.60;;
11539;SDS011;5826;54.756;9.192;2024-01-30T02:56:16;15.27;;;11.57;;
11539;SDS011;5826;54.756;9.192;2024-01-30T02:58:41;17.20;;;13.40;;
11539;SDS011;5826;54.756;9.192;2024-01-30T03:01:07;15.10;;;11.20;;
11539;SDS011;5826;54.756;9.192;2024-01-30T03:03:32;17.50;;;12.30;;
11539;SDS011;5826;54.756;9.192;2024-01-30T03:06:00;20.40;;;14.45;;
11539;SDS011;5826;54.756;9.192;2024-01-30T03:08:26;15.90;;;11.93;;
11539;SDS011;5826;54.756;9.192;2024-01-30T03:10:52;18.07;;;13.37;;
11539;SDS011;5826;54.756;9.192;2024-01-30T03:13:17;19.73;;;13.90;;
11539;SDS011;5826;54.756;9.192;2024-01-30T03:15:43;18.97;;;14.07;;
11539;SDS011;5826;54.756;9.192;2024-01-30T03:18:08;21.83;;;15.03;;
11539;SDS011;5826;54.756;9.192;2024-01-30T03:20:34;19.33;;;14.57;;
11539;SDS011;5826;54.756;9.192;2024-01-30T03:22:59;20.93;;;15.40;;
11539;SDS011;5826;54.756;9.192;2024-01-30T03:25:25;16.30;;;12.40;;
11539;SDS011;5826;54.756;9.192;2024-01-30T03:27:51;20.47;;;15.60;;
11539;SDS011;5826;54.756;9.192;2024-01-30T03:30:16;16.97;;;12.50;;
11539;SDS011;5826;54.756;9.192;2024-01-30T03:32:42;16.80;;;12.73;;
11539;SDS011;5826;54.756;9.192;2024-01-30T03:35:09;19.70;;;13.37;;
11539;SDS011;5826;54.756;9.192;2024-01-30T03:37:34;14.67;;;12.80;;
11539;SDS011;5826;54.756;9.192;2024-01-30T03:40:00;16.63;;;13.13;;
11539;SDS011;5826;54.756;9.192;2024-01-30T03:42:26;17.50;;;14.07;;
11539;SDS011;5826;54.756;9.192;2024-01-30T03:44:52;19.30;;;15.67;;
11539;SDS011;5826;54.756;9.192;2024-01-30T03:47:18;19.97;;;15.13;;
11539;SDS011;5826;54.756;9.192;2024-01-30T03:49:44;18.47;;;13.87;;
11539;SDS011;5826;54.756;9.192;2024-01-30T03:52:10;19.90;;;14.80;;
11539;SDS011;5826;54.756;9.192;2024-01-30T03:54:35;20.20;;;15.17;;
11539;SDS011;5826;54.756;9.192;2024-01-30T03:57:01;19.03;;;14.60;;
11539;SDS011;5826;54.756;9.192;2024-01-30T03:59:27;21.63;;;15.03;;
11539;SDS011;5826;54.756;9.192;2024-01-30T04:01:52;16.87;;;12.67;;
11539;SDS011;5826;54.756;9.192;2024-01-30T04:04:18;20.03;;;15.00;;
11539;SDS011;5826;54.756;9.192;2024-01-30T04:06:44;17.70;;;14.43;;
11539;SDS011;5826;54.756;9.192;2024-01-30T04:09:10;18.20;;;12.40;;
11539;SDS011;5826;54.756;9.192;2024-01-30T04:11:38;20.93;;;16.23;;
11539;SDS011;5826;54.756;9.192;2024-01-30T04:14:03;19.33;;;14.50;;
11539;SDS011;5826;54.756;9.192;2024-01-30T04:16:29;17.43;;;14.23;;
11539;SDS011;5826;54.756;9.192;2024-01-30T04:18:55;18.33;;;14.27;;
11539;SDS011;5826;54.756;9.192;2024-01-30T04:21:21;19.00;;;15.10;;
11539;SDS011;5826;54.756;9.192;2024-01-30T04:23:47;18.80;;;15.43;;
11539;SDS011;5826;54.756;9.192;2024-01-30T04:26:13;18.67;;;15.50;;
11539;SDS011;5826;54.756;9.192;2024-01-30T04:28:40;19.17;;;15.60;;
11539;SDS011;5826;54.756;9.192;2024-01-30T04:31:06;16.93;;;13.80;;
11539;SDS011;5826;54.756;9.192;2024-01-30T04:33:32;16.27;;;13.17;;
11539;SDS011;5826;54.756;9.192;2024-01-30T04:35:57;14.97;;;12.43;;
11539;SDS011;5826;54.756;9.192;2024-01-30T04:38:23;17.07;;;14.90;;
11539;SDS011;5826;54.756;9.192;2024-01-30T04:40:48;18.10;;;14.50;;
11539;SDS011;5826;54.756;9.192;2024-01-30T04:43:14;17.87;;;14.63;;
11539;SDS011;5826;54.756;9.192;2024-01-30T04:45:40;17.77;;;13.70;;
11539;SDS011;5826;54.756;9.192;2024-01-30T04:48:06;16.70;;;14.27;;
11539;SDS011;5826;54.756;9.192;2024-01-30T04:50:32;18.23;;;13.63;;
11539;SDS011;5826;54.756;9.192;2024-01-30T04:52:57;17.13;;;13.83;;
11539;SDS011;5826;54.756;9.192;2024-01-30T04:55:23;18.37;;;14.50;;
11539;SDS011;5826;54.756;9.192;2024-01-30T04:57:48;13.87;;;11.67;;
11539;SDS011;5826;54.756;9.192;2024-01-30T05:00:14;16.60;;;14.27;;
11539;SDS011;5826;54.756;9.192;2024-01-30T05:02:40;17.87;;;15.57;;
11539;SDS011;5826;54.756;9.192;2024-01-30T05:05:05;17.27;;;14.73;;
11539;SDS011;5826;54.756;9.192;2024-01-30T05:07:31;18.77;;;14.27;;
11539;SDS011;5826;54.756;9.192;2024-01-30T05:09:56;17.70;;;15.47;;
11539;SDS011;5826;54.756;9.192;2024-01-30T05:12:22;14.50;;;12.40;;
11539;SDS011;5826;54.756;9.192;2024-01-30T05:14:47;18.17;;;14.73;;
11539;SDS011;5826;54.756;9.192;2024-01-30T05:17:13;17.83;;;15.70;;
11539;SDS011;5826;54.756;9.192;2024-01-30T05:19:39;16.77;;;13.57;;
11539;SDS011;5826;54.756;9.192;2024-01-30T05:22:05;17.37;;;14.30;;
11539;SDS011;5826;54.756;9.192;2024-01-30T05:24:30;16.63;;;13.33;;
11539;SDS011;5826;54.756;9.192;2024-01-30T05:26:57;19.27;;;15.97;;
11539;SDS011;5826;54.756;9.192;2024-01-30T05:29:22;14.67;;;13.07;;
11539;SDS011;5826;54.756;9.192;2024-01-30T05:31:48;18.93;;;15.67;;
11539;SDS011;5826;54.756;9.192;2024-01-30T05:34:13;16.93;;;13.57;;
11539;SDS011;5826;54.756;9.192;2024-01-30T05:36:39;14.97;;;12.47;;
11539;SDS011;5826;54.756;9.192;2024-01-30T05:39:04;13.30;;;11.47;;
11539;SDS011;5826;54.756;9.192;2024-01-30T05:41:30;15.37;;;13.73;;
11539;SDS011;5826;54.756;9.192;2024-01-30T05:43:55;15.60;;;13.90;;
11539;SDS011;5826;54.756;9.192;2024-01-30T05:46:21;16.20;;;12.77;;
11539;SDS011;5826;54.756;9.192;2024-01-30T05:48:47;17.63;;;14.50;;
11539;SDS011;5826;54.756;9.192;2024-01-30T05:51:12;18.87;;;15.53;;
11539;SDS011;5826;54.756;9.192;2024-01-30T05:53:38;20.17;;;16.33;;
11539;SDS011;5826;54.756;9.192;2024-01-30T05:56:03;18.90;;;15.40;;
11539;SDS011;5826;54.756;9.192;2024-01-30T05:58:29;17.43;;;14.53;;
11539;SDS011;5826;54.756;9.192;2024-01-30T06:00:56;18.90;;;15.13;;
11539;SDS011;5826;54.756;9.192;2024-01-30T06:03:22;18.30;;;15.97;;
11539;SDS011;5826;54.756;9.192;2024-01-30T06:05:48;14.17;;;12.67;;
11539;SDS011;5826;54.756;9.192;2024-01-30T06:08:13;17.57;;;13.97;;
11539;SDS011;5826;54.756;9.192;2024-01-30T06:10:39;17.57;;;14.80;;
11539;SDS011;5826;54.756;9.192;2024-01-30T06:13:05;17.27;;;14.37;;
11539;SDS011;5826;54.756;9.192;2024-01-30T06:15:30;17.17;;;14.63;;
11539;SDS011;5826;54.756;9.192;2024-01-30T06:17:57;19.20;;;16.20;;
11539;SDS011;5826;54.756;9.192;2024-01-30T06:20:23;18.23;;;14.43;;
11539;SDS011;5826;54.756;9.192;2024-01-30T06:22:49;15.77;;;12.47;;
11539;SDS011;5826;54.756;9.192;2024-01-30T06:25:14;17.77;;;13.10;;
11539;SDS011;5826;54.756;9.192;2024-01-30T06:27:41;15.63;;;14.00;;
11539;SDS011;5826;54.756;9.192;2024-01-30T06:30:06;13.50;;;11.73;;
11539;SDS011;5826;54.756;9.192;2024-01-30T06:32:32;13.90;;;12.00;;
11539;SDS011;5826;54.756;9.192;2024-01-30T06:34:59;14.80;;;13.20;;
11539;SDS011;5826;54.756;9.192;2024-01-30T06:37:25;19.07;;;13.90;;
11539;SDS011;5826;54.756;9.192;2024-01-30T06:39:51;17.83;;;15.47;;
11539;SDS011;5826;54.756;9.192;2024-01-30T06:42:17;15.53;;;13.70;;
11539;SDS011;5826;54.756;9.192;2024-01-30T06:44:43;14.50;;;12.90;;
11539;SDS011;5826;54.756;9.192;2024-01-30T06:47:09;17.63;;;15.70;;
11539;SDS011;5826;54.756;9.192;2024-01-30T06:49:35;14.07;;;11.63;;
11539;SDS011;5826;54.756;9.192;2024-01-30T06:52:03;17.60;;;15.23;;
11539;SDS011;5826;54.756;9.192;2024-01-30T06:54:31;19.43;;;16.20;;
11539;SDS011;5826;54.756;9.192;2024-01-30T06:56:57;16.27;;;13.83;;
11539;SDS011;5826;54.756;9.192;2024-01-30T06:59:23;17.37;;;14.03;;
11539;SDS011;5826;54.756;9.192;2024-01-30T07:01:49;16.80;;;14.43;;
11539;SDS011;5826;54.756;9.192;2024-01-30T07:04:14;14.80;;;13.20;;
11539;SDS011;5826;54.756;9.192;2024-01-30T07:06:40;19.80;;;13.80;;
11539;SDS011;5826;54.756;9.192;2024-01-30T07:09:06;16.50;;;13.83;;
11539;SDS011;5826;54.756;9.192;2024-01-30T07:11:32;16.17;;;14.23;;
11539;SDS011;5826;54.756;9.192;2024-01-30T07:13:57;14.77;;;12.13;;
11539;SDS011;5826;54.756;9.192;2024-01-30T07:16:23;17.20;;;14.37;;
11539;SDS011;5826;54.756;9.192;2024-01-30T07:18:49;13.20;;;11.77;;
11539;SDS011;5826;54.756;9.192;2024-01-30T07:21:15;18.63;;;14.67;;
11539;SDS011;5826;54.756;9.192;2024-01-30T07:23:40;15.27;;;12.50;;
11539;SDS011;5826;54.756;9.192;2024-01-30T07:26:07;12.43;;;10.90;;
11539;SDS011;5826;54.756;9.192;2024-01-30T07:28:34;15.40;;;13.80;;
11539;SDS011;5826;54.756;9.192;2024-01-30T07:31:00;13.03;;;11.40;;
11539;SDS011;5826;54.756;9.192;2024-01-30T07:33:26;15.03;;;12.27;;
11539;SDS011;5826;54.756;9.192;2024-01-30T07:35:52;15.43;;;12.83;;
11539;SDS011;5826;54.756;9.192;2024-01-30T07:38:18;15.83;;;12.17;;
11539;SDS011;5826;54.756;9.192;2024-01-30T07:40:44;12.63;;;10.77;;
11539;SDS011;5826;54.756;9.192;2024-01-30T07:43:09;13.63;;;11.17;;
11539;SDS011;5826;54.756;9.192;2024-01-30T07:45:35;14.83;;;11.10;;
11539;SDS011;5826;54.756;9.192;2024-01-30T07:48:02;14.50;;;12.77;;
11539;SDS011;5826;54.756;9.192;2024-01-30T07:50:28;16.40;;;12.60;;
11539;SDS011;5826;54.756;9.192;2024-01-30T07:52:53;16.07;;;13.00;;
11539;SDS011;5826;54.756;9.192;2024-01-30T07:55:21;12.87;;;11.13;;
11539;SDS011;5826;54.756;9.192;2024-01-30T07:57:52;14.13;;;11.93;;
11539;SDS011;5826;54.756;9.192;2024-01-30T08:00:18;14.83;;;12.20;;
11539;SDS011;5826;54.756;9.192;2024-01-30T08:02:44;14.07;;;11.90;;
11539;SDS011;5826;54.756;9.192;2024-01-30T08:05:11;15.10;;;12.60;;
11539;SDS011;5826;54.756;9.192;2024-01-30T08:07:40;12.67;;;11.00;;
11539;SDS011;5826;54.756;9.192;2024-01-30T08:10:06;12.57;;;10.20;;
11539;SDS011;5826;54.756;9.192;2024-01-30T08:12:32;14.83;;;11.93;;
11539;SDS011;5826;54.756;9.192;2024-01-30T08:14:58;11.90;;;10.33;;
11539;SDS011;5826;54.756;9.192;2024-01-30T08:17:23;11.50;;;10.30;;
11539;SDS011;5826;54.756;9.192;2024-01-30T08:19:49;14.77;;;13.27;;
11539;SDS011;5826;54.756;9.192;2024-01-30T08:22:14;11.67;;;9.83;;
11539;SDS011;5826;54.756;9.192;2024-01-30T08:24:40;12.30;;;11.00;;
11539;SDS011;5826;54.756;9.192;2024-01-30T08:27:06;14.13;;;11.43;;
11539;SDS011;5826;54.756;9.192;2024-01-30T08:29:34;13.30;;;10.53;;
11539;SDS011;5826;54.756;9.192;2024-01-30T08:32:00;14.10;;;12.07;;
11539;SDS011;5826;54.756;9.192;2024-01-30T08:34:26;12.27;;;10.87;;
11539;SDS011;5826;54.756;9.192;2024-01-30T08:36:51;12.53;;;11.23;;
11539;SDS011;5826;54.756;9.192;2024-01-30T08:39:17;14.50;;;12.47;;
11539;SDS011;5826;54.756;9.192;2024-01-30T08:41:42;14.07;;;11.77;;
11539;SDS011;5826;54.756;9.192;2024-01-30T08:44:08;14.43;;;11.73;;
11539;SDS011;5826;54.756;9.192;2024-01-30T08:46:35;14.40;;;11.90;;
11539;SDS011;5826;54.756;9.192;2024-01-30T08:49:01;14.13;;;12.70;;
11539;SDS011;5826;54.756;9.192;2024-01-30T08:51:27;13.53;;;10.73;;
11539;SDS011;5826;54.756;9.192;2024-01-30T08:53:53;13.30;;;11.47;;
11539;SDS011;5826;54.756;9.192;2024-01-30T08:56:19;12.67;;;11.37;;
11539;SDS011;5826;54.756;9.192;2024-01-30T08:58:44;11.90;;;9.93;;
11539;SDS011;5826;54.756;9.192;2024-01-30T09:01:10;12.10;;;10.67;;
11539;SDS011;5826;54.756;9.192;2024-01-30T09:03:35;15.47;;;13.30;;
11539;SDS011;5826;54.756;9.192;2024-01-30T09:06:07;13.23;;;11.27;;
11539;SDS011;5826;54.756;9.192;2024-01-30T09:08:33;11.23;;;9.47;;
11539;SDS011;5826;54.756;9.192;2024-01-30T09:10:59;13.85;;;12.40;;
11539;SDS011;5826;54.756;9.192;2024-01-30T09:13:24;12.63;;;10.80;;
11539;SDS011;5826;54.756;9.192;2024-01-30T09:15:50;13.00;;;11.20;;
11539;SDS011;5826;54.756;9.192;2024-01-30T09:18:15;14.73;;;12.50;;
11539;SDS011;5826;54.756;9.192;2024-01-30T09:20:41;14.48;;;12.38;;
11539;SDS011;5826;54.756;9.192;2024-01-30T09:23:06;12.43;;;10.75;;
11539;SDS011;5826;54.756;9.192;2024-01-30T09:25:32;11.20;;;9.60;;
11539;SDS011;5826;54.756;9.192;2024-01-30T09:27:59;10.20;;;9.20;;
11539;SDS011;5826;54.756;9.192;2024-01-30T09:30:24;12.20;;;10.90;;
11539;SDS011;5826;54.756;9.192;2024-01-30T09:32:50;10.53;;;9.47;;
11539;SDS011;5826;54.756;9.192;2024-01-30T09:35:15;12.52;;;11.23;;
11539;SDS011;5826;54.756;9.192;2024-01-30T09:37:44;11.93;;;10.27;;
11539;SDS011;5826;54.756;9.192;2024-01-30T09:40:09;13.35;;;11.95;;
11539;SDS011;5826;54.756;9.192;2024-01-30T09:42:35;11.40;;;10.23;;
11539;SDS011;5826;54.756;9.192;2024-01-30T09:45:02;13.43;;;12.05;;
11539;SDS011;5826;54.756;9.192;2024-01-30T09:47:30;10.00;;;9.00;;
11539;SDS011;5826;54.756;9.192;2024-01-30T09:50:07;11.73;;;10.48;;
11539;SDS011;5826;54.756;9.192;2024-01-30T09:52:33;12.80;;;11.45;;
11539;SDS011;5826;54.756;9.192;2024-01-30T09:54:59;11.85;;;10.65;;
11539;SDS011;5826;54.756;9.192;2024-01-30T09:57:26;11.80;;;10.48;;
11539;SDS011;5826;54.756;9.192;2024-01-30T09:59:52;12.55;;;10.77;;
11539;SDS011;5826;54.756;9.192;2024-01-30T10:02:19;13.57;;;11.88;;
11539;SDS011;5826;54.756;9.192;2024-01-30T10:04:48;13.35;;;11.95;;
11539;SDS011;5826;54.756;9.192;2024-01-30T10:07:15;15.80;;;13.53;;
11539;SDS011;5826;54.756;9.192;2024-01-30T10:09:41;13.90;;;12.50;;
11539;SDS011;5826;54.756;9.192;2024-01-30T10:12:06;13.38;;;11.98;;
11539;SDS011;5826;54.756;9.192;2024-01-30T10:14:33;13.05;;;11.65;;
11539;SDS011;5826;54.756;9.192;2024-01-30T10:16:59;12.80;;;11.18;;
11539;SDS011;5826;54.756;9.192;2024-01-30T10:19:25;11.35;;;10.18;;
11539;SDS011;5826;54.756;9.192;2024-01-30T10:21:51;13.63;;;12.32;;
11539;SDS011;5826;54.756;9.192;2024-01-30T10:24:17;13.07;;;11.77;;
11539;SDS011;5826;54.756;9.192;2024-01-30T10:26:46;12.13;;;10.57;;
11539;SDS011;5826;54.756;9.192;2024-01-30T10:29:11;11.83;;;10.63;;
11539;SDS011;5826;54.756;9.192;2024-01-30T10:31:37;14.93;;;13.17;;
11539;SDS011;5826;54.756;9.192;2024-01-30T10:34:02;14.93;;;13.27;;
11539;SDS011;5826;54.756;9.192;2024-01-30T10:36:28;12.23;;;10.93;;
11539;SDS011;5826;54.756;9.192;2024-01-30T10:38:59;13.10;;;11.38;;
11539;SDS011;5826;54.756;9.192;2024-01-30T10:41:27;13.85;;;12.45;;
11539;SDS011;5826;54.756;9.192;2024-01-30T10:44:02;11.70;;;10.17;;
11539;SDS011;5826;54.756;9.192;2024-01-30T10:46:32;12.15;;;10.55;;
11539;SDS011;5826;54.756;9.192;2024-01-30T10:49:00;11.37;;;10.17;;
11539;SDS011;5826;54.756;9.192;2024-01-30T10:51:26;12.43;;;11.03;;
11539;SDS011;5826;54.756;9.192;2024-01-30T10:53:56;13.00;;;11.50;;
11539;SDS011;5826;54.756;9.192;2024-01-30T10:56:22;13.30;;;11.70;;
11539;SDS011;5826;54.756;9.192;2024-01-30T10:58:50;14.60;;;12.53;;
11539;SDS011;5826;54.756;9.192;2024-01-30T11:01:17;12.27;;;10.63;;
11539;SDS011;5826;54.756;9.192;2024-01-30T11:03:44;13.95;;;12.05;;
11539;SDS011;5826;54.756;9.192;2024-01-30T11:06:10;15.10;;;12.88;;
11539;SDS011;5826;54.756;9.192;2024-01-30T11:08:43;13.10;;;11.80;;
11539;SDS011;5826;54.756;9.192;2024-01-30T11:11:09;12.35;;;11.05;;
11539;SDS011;5826;54.756;9.192;2024-01-30T11:13:35;14.68;;;12.20;;
11539;SDS011;5826;54.756;9.192;2024-01-30T11:16:02;13.95;;;12.07;;
11539;SDS011;5826;54.756;9.192;2024-01-30T11:18:31;14.73;;;12.52;;
11539;SDS011;5826;54.756;9.192;2024-01-30T11:20:58;11.35;;;10.20;;
11539;SDS011;5826;54.756;9.192;2024-01-30T11:23:26;10.57;;;9.48;;
11539;SDS011;5826;54.756;9.192;2024-01-30T11:25:53;10.77;;;9.68;;
11539;SDS011;5826;54.756;9.192;2024-01-30T11:28:19;10.68;;;9.40;;
11539;SDS011;5826;54.756;9.192;2024-01-30T11:30:46;14.43;;;12.95;;
11539;SDS011;5826;54.756;9.192;2024-01-30T11:33:15;16.50;;;14.33;;
11539;SDS011;5826;54.756;9.192;2024-01-30T11:35:52;14.73;;;13.23;;
11539;SDS011;5826;54.756;9.192;2024-01-30T11:38:18;16.30;;;14.33;;
11539;SDS011;5826;54.756;9.192;2024-01-30T11:40:43;12.30;;;11.00;;
11539;SDS011;5826;54.756;9.192;2024-01-30T11:43:09;13.77;;;12.38;;
11539;SDS011;5826;54.756;9.192;2024-01-30T11:45:35;15.65;;;13.00;;
11539;SDS011;5826;54.756;9.192;2024-01-30T11:48:01;13.85;;;11.60;;
11539;SDS011;5826;54.756;9.192;2024-01-30T11:50:32;16.75;;;13.77;;
11539;SDS011;5826;54.756;9.192;2024-01-30T11:53:01;14.63;;;12.60;;
11539;SDS011;5826;54.756;9.192;2024-01-30T11:55:28;12.98;;;10.85;;
11539;SDS011;5826;54.756;9.192;2024-01-30T11:57:55;13.55;;;12.15;;
11539;SDS011;5826;54.756;9.192;2024-01-30T12:00:22;13.57;;;12.17;;
11539;SDS011;5826;54.756;9.192;2024-01-30T12:02:49;13.82;;;11.25;;
11539;SDS011;5826;54.756;9.192;2024-01-30T12:05:15;12.02;;;10.82;;
11539;SDS011;5826;54.756;9.192;2024-01-30T12:07:43;11.65;;;10.45;;
11539;SDS011;5826;54.756;9.192;2024-01-30T12:10:09;12.45;;;11.13;;
11539;SDS011;5826;54.756;9.192;2024-01-30T12:12:36;15.18;;;13.07;;
11539;SDS011;5826;54.756;9.192;2024-01-30T12:15:02;15.25;;;12.38;;
11539;SDS011;5826;54.756;9.192;2024-01-30T12:17:31;14.73;;;13.25;;
11539;SDS011;5826;54.756;9.192;2024-01-30T12:20:06;13.25;;;11.85;;
11539;SDS011;5826;54.756;9.192;2024-01-30T12:22:36;14.80;;;11.77;;
11539;SDS011;5826;54.756;9.192;2024-01-30T12:25:05;16.55;;;13.63;;
11539;SDS011;5826;54.756;9.192;2024-01-30T12:27:33;13.73;;;11.45;;
11539;SDS011;5826;54.756;9.192;2024-01-30T12:29:59;14.77;;;13.20;;
11539;SDS011;5826;54.756;9.192;2024-01-30T12:32:24;17.40;;;13.90;;
11539;SDS011;5826;54.756;9.192;2024-01-30T12:34:50;12.48;;;11.15;;
11539;SDS011;5826;54.756;9.192;2024-01-30T12:37:15;14.90;;;12.38;;
11539;SDS011;5826;54.756;9.192;2024-01-30T12:39:47;12.85;;;11.13;;
11539;SDS011;5826;54.756;9.192;2024-01-30T12:42:13;15.00;;;13.25;;
11539;SDS011;5826;54.756;9.192;2024-01-30T12:44:39;15.50;;;12.23;;
11539;SDS011;5826;54.756;9.192;2024-01-30T12:47:06;15.45;;;13.05;;
11539;SDS011;5826;54.756;9.192;2024-01-30T12:49:33;15.30;;;12.75;;
11539;SDS011;5826;54.756;9.192;2024-01-30T12:51:59;14.55;;;11.77;;
11539;SDS011;5826;54.756;9.192;2024-01-30T12:54:24;16.38;;;13.00;;
11539;SDS011;5826;54.756;9.192;2024-01-30T12:56:50;16.67;;;13.70;;
11539;SDS011;5826;54.756;9.192;2024-01-30T12:59:15;15.93;;;12.57;;
11539;SDS011;5826;54.756;9.192;2024-01-30T13:01:41;14.07;;;12.35;;
11539;SDS011;5826;54.756;9.192;2024-01-30T13:04:06;16.48;;;12.68;;
11539;SDS011;5826;54.756;9.192;2024-01-30T13:06:32;14.98;;;13.48;;
11539;SDS011;5826;54.756;9.192;2024-01-30T13:08:57;14.80;;;13.07;;
11539;SDS011;5826;54.756;9.192;2024-01-30T13:11:23;15.07;;;12.60;;
11539;SDS011;5826;54.756;9.192;2024-01-30T13:13:50;13.15;;;11.43;;
11539;SDS011;5826;54.756;9.192;2024-01-30T13:16:15;14.63;;;11.35;;
11539;SDS011;5826;54.756;9.192;2024-01-30T13:18:41;15.48;;;12.95;;
11539;SDS011;5826;54.756;9.192;2024-01-30T13:21:07;15.90;;;12.55;;
11539;SDS011;5826;54.756;9.192;2024-01-30T13:23:32;13.10;;;11.70;;
11539;SDS011;5826;54.756;9.192;2024-01-30T13:25:58;15.38;;;12.25;;
11539;SDS011;5826;54.756;9.192;2024-01-30T13:28:23;17.70;;;14.13;;
11539;SDS011;5826;54.756;9.192;2024-01-30T13:30:50;15.27;;;13.03;;
11539;SDS011;5826;54.756;9.192;2024-01-30T13:33:16;14.93;;;12.63;;
11539;SDS011;5826;54.756;9.192;2024-01-30T13:35:41;15.52;;;12.50;;
11539;SDS011;5826;54.756;9.192;2024-01-30T13:38:07;17.98;;;15.23;;
11539;SDS011;5826;54.756;9.192;2024-01-30T13:40:33;14.83;;;13.27;;
11539;SDS011;5826;54.756;9.192;2024-01-30T13:42:58;16.63;;;12.77;;
11539;SDS011;5826;54.756;9.192;2024-01-30T13:45:24;15.40;;;12.63;;
11539;SDS011;5826;54.756;9.192;2024-01-30T13:47:49;17.80;;;12.88;;
11539;SDS011;5826;54.756;9.192;2024-01-30T13:50:15;14.60;;;11.18;;
11539;SDS011;5826;54.756;9.192;2024-01-30T13:52:41;15.20;;;12.82;;
11539;SDS011;5826;54.756;9.192;2024-01-30T13:55:08;18.05;;;12.88;;
11539;SDS011;5826;54.756;9.192;2024-01-30T13:57:34;18.15;;;14.27;;
11539;SDS011;5826;54.756;9.192;2024-01-30T14:00:01;17.30;;;14.68;;
11539;SDS011;5826;54.756;9.192;2024-01-30T14:02:30;17.00;;;14.48;;
11539;SDS011;5826;54.756;9.192;2024-01-30T14:04:56;14.23;;;12.00;;
11539;SDS011;5826;54.756;9.192;2024-01-30T14:07:21;16.25;;;13.32;;
11539;SDS011;5826;54.756;9.192;2024-01-30T14:09:47;13.52;;;10.63;;
11539;SDS011;5826;54.756;9.192;2024-01-30T14:12:13;14.45;;;10.43;;
11539;SDS011;5826;54.756;9.192;2024-01-30T14:14:38;10.65;;;9.23;;
11539;SDS011;5826;54.756;9.192;2024-01-30T14:17:05;14.20;;;10.55;;
11539;SDS011;5826;54.756;9.192;2024-01-30T14:19:32;12.27;;;10.07;;
11539;SDS011;5826;54.756;9.192;2024-01-30T14:22:03;11.27;;;10.18;;
11539;SDS011;5826;54.756;9.192;2024-01-30T14:24:29;15.65;;;12.13;;
11539;SDS011;5826;54.756;9.192;2024-01-30T14:26:54;11.85;;;10.65;;
11539;SDS011;5826;54.756;9.192;2024-01-30T14:29:20;14.57;;;11.63;;